Time;durP1;ratioP1;P1;durP2;ratioP2;P2;SDS_P1;SDS_P2;PMS_P1;PMS_P2;Temp;Humidity;BMP_temperature;BMP_pressure;BME280_temperature;BME280_humidity;BME280_pressure;Samples;Min_cycle;Max_cycle;Signal;HPM_P1;HPM_P2
2021/01/15 11:49:10;;;;;;;13.75;8.18;;;2.60;93.10;;;;;;5141341;27;27378;-50
2021/01/15 11:51:57;;;;;;;13.75;7.63;;;2.80;93.20;;;;;;5142677;27;27362;-50
2021/01/15 11:54:42;;;;;;;10.85;6.70;;;3.10;93.00;;;;;;5139260;27;27402;-51
2021/01/15 11:57:27;;;;;;;9.63;6.80;;;3.70;92.30;;;;;;5141860;27;27366;-48
2021/01/15 12:00:12;;;;;;;11.60;7.32;;;4.30;90.90;;;;;;5142423;27;27322;-45
2021/01/15 12:02:58;;;;;;;9.10;6.00;;;4.80;86.60;;;;;;5142134;27;27427;-50
2021/01/15 12:05:51;;;;;;;9.48;6.30;;;5.30;78.50;;;;;;5138095;27;27400;-49
2021/01/15 12:08:36;;;;;;;8.48;5.78;;;5.70;75.10;;;;;;5142189;27;27327;-49
2021/01/15 12:11:20;;;;;;;8.80;5.85;;;6.00;73.50;;;;;;5141769;27;27408;-45
2021/01/15 12:14:07;;;;;;;7.03;5.00;;;6.30;73.00;;;;;;5142415;27;27420;-46
2021/01/15 12:16:51;;;;;;;9.35;6.38;;;6.50;72.10;;;;;;5141909;27;27393;-46
2021/01/15 12:19:36;;;;;;;7.25;5.35;;;6.70;71.70;;;;;;5142259;27;27315;-47
2021/01/15 12:22:21;;;;;;;8.45;5.43;;;6.90;68.80;;;;;;5141913;27;27362;-47
2021/01/15 12:25:06;;;;;;;7.97;5.43;;;7.00;67.50;;;;;;5142039;27;27507;-46
2021/01/15 12:27:51;;;;;;;7.88;5.85;;;7.10;67.00;;;;;;5141888;27;27466;-47
2021/01/15 12:30:36;;;;;;;8.43;5.55;;;7.10;66.50;;;;;;5141805;27;27341;-47
2021/01/15 12:33:20;;;;;;;8.70;5.78;;;7.20;66.00;;;;;;5141375;27;27421;-48
2021/01/15 12:36:06;;;;;;;11.10;6.35;;;7.20;65.80;;;;;;5141452;27;27401;-46
2021/01/15 12:38:50;;;;;;;8.73;6.05;;;7.20;64.70;;;;;;5108840;27;27359;-45
2021/01/15 12:41:35;;;;;;;10.75;6.10;;;7.20;65.30;;;;;;5141768;27;27316;-45
2021/01/15 12:44:19;;;;;;;10.27;6.07;;;7.30;66.00;;;;;;5141190;27;27409;-48
2021/01/15 12:47:04;;;;;;;7.50;5.50;;;7.40;66.00;;;;;;5140951;27;27511;-46
2021/01/15 12:49:48;;;;;;;8.75;5.97;;;7.50;66.40;;;;;;5137980;27;27414;-47
2021/01/15 12:52:33;;;;;;;7.65;4.78;;;7.50;65.90;;;;;;5141219;27;27409;-43
2021/01/15 12:55:27;;;;;;;7.97;4.78;;;7.60;64.70;;;;;;5141195;27;27476;-47
2021/01/15 12:58:12;;;;;;;6.82;4.55;;;7.60;64.90;;;;;;5140883;27;27461;-47
2021/01/15 13:00:59;;;;;;;6.72;4.95;;;7.80;63.90;;;;;;5127348;27;27467;-47
2021/01/15 13:03:43;;;;;;;8.68;4.45;;;7.90;64.90;;;;;;5127674;27;27343;-45
2021/01/15 13:06:28;;;;;;;6.57;4.88;;;8.00;65.60;;;;;;5127663;27;27421;-47
2021/01/15 13:09:13;;;;;;;9.70;4.65;;;8.10;65.20;;;;;;5127188;27;27469;-49
2021/01/15 13:11:58;;;;;;;5.72;4.15;;;8.10;66.10;;;;;;5125682;27;27589;-48
2021/01/15 13:14:42;;;;;;;7.68;4.65;;;8.20;66.10;;;;;;5127464;27;27442;-48
2021/01/15 13:17:26;;;;;;;7.32;4.85;;;8.20;65.90;;;;;;5127431;27;27468;-48
2021/01/15 13:20:11;;;;;;;6.18;5.35;;;8.20;66.40;;;;;;5127266;27;27460;-47
2021/01/15 13:23:06;;;;;;;7.32;5.05;;;8.10;67.00;;;;;;5127388;27;27429;-43
2021/01/15 13:25:51;;;;;;;7.47;5.53;;;8.00;66.90;;;;;;5127203;27;27429;-47
2021/01/15 13:28:35;;;;;;;7.20;5.07;;;8.00;67.20;;;;;;5126619;27;27888;-47
2021/01/15 13:31:20;;;;;;;9.48;5.10;;;7.90;67.80;;;;;;5123659;27;27410;-47
2021/01/15 13:34:05;;;;;;;9.77;5.80;;;7.80;68.40;;;;;;5127114;27;27428;-48
2021/01/15 13:36:50;;;;;;;9.00;6.30;;;7.70;69.20;;;;;;5126805;27;27395;-46
2021/01/15 13:39:35;;;;;;;7.15;5.72;;;7.70;69.40;;;;;;5126548;27;27422;-47
2021/01/15 13:42:19;;;;;;;9.00;5.90;;;7.60;69.70;;;;;;5126735;27;27415;-47
2021/01/15 13:45:05;;;;;;;8.50;5.90;;;7.60;69.60;;;;;;5126996;27;27432;-48
2021/01/15 13:47:51;;;;;;;7.32;5.97;;;7.50;70.10;;;;;;5126146;27;27694;-47
2021/01/15 13:50:48;;;;;;;6.57;5.30;;;7.50;70.80;;;;;;5125715;27;28014;-46
2021/01/15 13:53:33;;;;;;;8.95;5.40;;;7.40;71.20;;;;;;5126490;27;27447;-46
2021/01/15 13:56:17;;;;;;;8.57;5.63;;;7.40;71.50;;;;;;5126871;27;27422;-47
2021/01/15 13:59:02;;;;;;;7.63;5.40;;;7.20;71.80;;;;;;5126583;27;27460;-47
2021/01/15 14:01:46;;;;;;;11.15;6.10;;;7.20;72.20;;;;;;5126666;27;27995;-47
2021/01/15 14:04:31;;;;;;;8.18;5.63;;;7.10;72.50;;;;;;5126309;27;27475;-43
2021/01/15 14:07:16;;;;;;;6.95;5.13;;;7.00;72.60;;;;;;5126308;27;27471;-46
2021/01/15 14:10:01;;;;;;;10.38;5.93;;;6.90;73.30;;;;;;5126172;27;27453;-45
2021/01/15 14:12:46;;;;;;;8.07;5.50;;;6.80;73.50;;;;;;5126156;27;27464;-48
2021/01/15 14:15:31;;;;;;;9.48;6.30;;;6.70;74.30;;;;;;5126393;27;27422;-48
2021/01/15 14:18:15;;;;;;;7.57;5.93;;;6.60;74.70;;;;;;5126194;27;27452;-46
2021/01/15 14:21:00;;;;;;;9.23;5.65;;;6.50;75.50;;;;;;5126245;27;27408;-47
2021/01/15 14:23:45;;;;;;;7.28;6.10;;;6.40;75.90;;;;;;5126243;27;27473;-46
2021/01/15 14:26:29;;;;;;;11.18;6.25;;;6.30;77.20;;;;;;5125836;27;27466;-47
2021/01/15 14:29:14;;;;;;;9.25;6.28;;;6.20;77.60;;;;;;5126218;27;27419;-48
2021/01/15 14:31:59;;;;;;;9.60;6.25;;;6.10;76.90;;;;;;5125331;27;27522;-47
2021/01/15 14:34:45;;;;;;;10.70;7.05;;;6.00;77.20;;;;;;5125725;27;28070;-48
2021/01/15 14:37:30;;;;;;;12.15;7.18;;;5.90;77.50;;;;;;5125207;27;27493;-47
2021/01/15 14:40:15;;;;;;;9.95;7.10;;;5.80;78.00;;;;;;5126055;27;27472;-46
2021/01/15 14:43:00;;;;;;;12.73;8.23;;;5.70;78.20;;;;;;5125784;27;27411;-48
2021/01/15 14:45:45;;;;;;;15.25;8.07;;;5.60;78.60;;;;;;5125003;27;27407;-51
2021/01/15 14:48:29;;;;;;;12.10;8.35;;;5.60;78.80;;;;;;5125102;27;27511;-45
2021/01/15 14:51:14;;;;;;;11.88;8.40;;;5.40;79.00;;;;;;5125775;27;27422;-47
2021/01/15 14:53:59;;;;;;;12.68;8.40;;;5.40;79.30;;;;;;5126015;27;27580;-47
2021/01/15 14:56:44;;;;;;;11.70;8.52;;;5.20;79.60;;;;;;5125501;27;27346;-48
2021/01/15 14:59:29;;;;;;;14.68;9.57;;;5.10;80.00;;;;;;5124949;27;27416;-46
2021/01/15 15:02:14;;;;;;;15.10;8.82;;;5.00;80.40;;;;;;5125782;27;27355;-46
2021/01/15 15:04:59;;;;;;;12.48;9.02;;;4.90;80.90;;;;;;5125801;27;27401;-47
2021/01/15 15:07:47;;;;;;;16.30;9.57;;;4.80;80.90;;;;;;5125562;27;27319;-46
2021/01/15 15:10:32;;;;;;;17.90;9.07;;;4.70;81.30;;;;;;5125759;27;27463;-46
2021/01/15 15:13:17;;;;;;;11.75;8.13;;;4.60;81.60;;;;;;5125689;27;27460;-49
2021/01/15 15:16:01;;;;;;;14.02;8.68;;;4.50;81.60;;;;;;5125562;27;27475;-52
2021/01/15 15:18:46;;;;;;;14.10;8.73;;;4.40;82.10;;;;;;5121810;27;27453;-48
2021/01/15 15:21:30;;;;;;;14.77;9.45;;;4.40;82.40;;;;;;5125110;27;27465;-43
2021/01/15 15:24:15;;;;;;;20.50;10.82;;;4.30;82.50;;;;;;5125468;27;27472;-48
2021/01/15 15:27:00;;;;;;;14.77;9.50;;;4.10;82.70;;;;;;5124879;27;27585;-48
2021/01/15 15:29:44;;;;;;;16.90;10.75;;;4.00;82.70;;;;;;5125339;27;27425;-48
2021/01/15 15:32:29;;;;;;;16.13;10.15;;;3.80;83.40;;;;;;5125370;27;27349;-49
2021/01/15 15:35:13;;;;;;;16.25;10.13;;;3.60;84.10;;;;;;5121319;27;27319;-48
2021/01/15 15:37:58;;;;;;;12.70;8.90;;;3.40;84.90;;;;;;5125145;27;27382;-48
2021/01/15 15:40:42;;;;;;;16.65;10.27;;;3.30;85.40;;;;;;5125054;27;27343;-48
2021/01/15 15:43:32;;;;;;;14.57;9.65;;;3.10;85.90;;;;;;5124901;27;27347;-49
2021/01/15 15:46:18;;;;;;;13.70;9.20;;;3.00;86.40;;;;;;5125037;27;27485;-47
2021/01/15 15:49:03;;;;;;;16.30;9.85;;;2.90;86.80;;;;;;5123914;27;27449;-47
2021/01/15 15:51:48;;;;;;;15.25;10.63;;;2.80;87.20;;;;;;5125148;27;27457;-47
2021/01/15 15:54:33;;;;;;;16.90;10.02;;;2.70;87.80;;;;;;5124432;27;27426;-47
2021/01/15 15:57:18;;;;;;;16.83;10.43;;;2.50;88.00;;;;;;5125162;27;27405;-47
2021/01/15 16:00:03;;;;;;;18.38;10.85;;;2.40;88.10;;;;;;5125063;27;27441;-47
2021/01/15 16:03:00;;;;;;;18.15;10.48;;;2.40;88.50;;;;;;5124500;27;27449;-48
2021/01/15 16:05:45;;;;;;;17.17;10.23;;;2.30;88.60;;;;;;5124703;27;27382;-47
2021/01/15 16:08:29;;;;;;;15.02;9.38;;;2.20;89.10;;;;;;5124462;27;27405;-47
2021/01/15 16:11:14;;;;;;;17.42;10.25;;;2.10;89.20;;;;;;5124613;27;27414;-46
2021/01/15 16:13:58;;;;;;;19.63;11.30;;;2.00;89.50;;;;;;5124614;27;27469;-46
2021/01/15 16:16:43;;;;;;;15.02;10.18;;;1.90;89.70;;;;;;5120823;27;27410;-51
2021/01/15 16:19:28;;;;;;;15.90;10.07;;;1.80;90.00;;;;;;5124563;27;27441;-46
2021/01/15 16:22:12;;;;;;;17.23;9.90;;;1.80;90.10;;;;;;5121203;27;27459;-48
2021/01/15 16:24:57;;;;;;;16.73;9.80;;;1.70;90.30;;;;;;5124483;27;27461;-46
2021/01/15 16:27:42;;;;;;;15.73;9.85;;;1.60;90.20;;;;;;5124475;27;27477;-46
2021/01/15 16:30:27;;;;;;;18.88;10.30;;;1.60;90.40;;;;;;5124385;27;27474;-46
2021/01/15 16:33:18;;;;;;;15.85;10.23;;;1.50;90.50;;;;;;5124344;27;27461;-46
2021/01/15 16:36:04;;;;;;;17.10;10.05;;;1.40;90.40;;;;;;5127867;27;27880;-46
2021/01/15 16:38:49;;;;;;;15.73;9.63;;;1.30;90.40;;;;;;5123895;27;27373;-47
2021/01/15 16:41:34;;;;;;;19.40;10.70;;;1.30;90.50;;;;;;5127868;27;27407;-46
2021/01/15 16:44:18;;;;;;;17.77;9.88;;;1.20;90.70;;;;;;5128037;27;27385;-45
2021/01/15 16:47:03;;;;;;;15.75;10.02;;;1.10;90.80;;;;;;5124653;27;27402;-46
2021/01/15 16:49:48;;;;;;;24.13;11.32;;;1.10;90.90;;;;;;5128023;27;27404;-45
2021/01/15 16:52:32;;;;;;;16.60;9.68;;;1.00;90.90;;;;;;5127794;27;27407;-42
2021/01/15 16:55:17;;;;;;;21.05;11.35;;;0.90;91.00;;;;;;5127661;27;27373;-47
2021/01/15 16:58:12;;;;;;;17.88;11.32;;;0.90;91.00;;;;;;5127544;27;27336;-47
2021/01/15 17:00:57;;;;;;;20.88;10.85;;;0.80;91.00;;;;;;5127758;27;27397;-43
2021/01/15 17:03:42;;;;;;;18.58;11.05;;;0.70;90.90;;;;;;5127818;27;27323;-49
2021/01/15 17:06:27;;;;;;;17.02;10.15;;;0.70;91.20;;;;;;5127740;27;27369;-46
2021/01/15 17:09:11;;;;;;;20.25;11.20;;;0.60;91.10;;;;;;5127329;27;27365;-51
2021/01/15 17:11:55;;;;;;;20.50;11.38;;;0.60;91.30;;;;;;5127323;27;27374;-48
2021/01/15 17:14:40;;;;;;;17.73;10.85;;;0.50;91.10;;;;;;5127308;27;27363;-48
2021/01/15 17:17:24;;;;;;;20.45;11.00;;;0.40;91.10;;;;;;5127190;27;27351;-46
2021/01/15 17:20:09;;;;;;;19.30;10.65;;;0.40;91.30;;;;;;5127281;27;27422;-48
2021/01/15 17:22:54;;;;;;;18.85;11.10;;;0.30;91.20;;;;;;5127341;27;27486;-47
2021/01/15 17:25:39;;;;;;;16.02;10.20;;;0.30;91.30;;;;;;5127254;27;27456;-47
2021/01/15 17:28:23;;;;;;;22.10;11.20;;;0.20;91.00;;;;;;5127094;27;27403;-48
2021/01/15 17:31:08;;;;;;;18.27;10.90;;;0.10;91.30;;;;;;5127043;27;27879;-47
2021/01/15 17:33:56;;;;;;;19.23;10.65;;;0.10;91.30;;;;;;5123986;27;27387;-48
2021/01/15 17:36:41;;;;;;;21.75;11.30;;;0.10;91.40;;;;;;5124053;27;27349;-45
2021/01/15 17:39:25;;;;;;;14.80;10.23;;;0.00;91.40;;;;;;5126954;27;27446;-44
2021/01/15 17:42:10;;;;;;;14.27;9.70;;;0.00;91.50;;;;;;5126602;27;27387;-50
2021/01/15 17:44:55;;;;;;;19.25;10.98;;;0.00;91.60;;;;;;5126748;27;27404;-47
2021/01/15 17:47:46;;;;;;;16.63;10.23;;;0.00;91.80;;;;;;5126000;27;27406;-50
2021/01/15 17:50:30;;;;;;;18.13;10.48;;;-0.10;91.90;;;;;;5126343;27;27426;-49
2021/01/15 17:53:15;;;;;;;16.83;10.32;;;-0.10;91.90;;;;;;5127031;27;27850;-48
2021/01/15 17:56:00;;;;;;;20.50;10.88;;;-0.10;92.10;;;;;;5126662;27;27572;-49
2021/01/15 17:58:45;;;;;;;21.02;11.85;;;-0.10;92.10;;;;;;5126919;27;27416;-48
2021/01/15 18:01:30;;;;;;;21.48;11.63;;;-0.10;92.30;;;;;;5126902;27;27484;-47
2021/01/15 18:04:14;;;;;;;19.42;10.90;;;-0.10;92.30;;;;;;5126753;27;27626;-46
2021/01/15 18:06:59;;;;;;;18.17;11.23;;;-0.10;92.40;;;;;;5126429;27;27431;-48
2021/01/15 18:09:43;;;;;;;20.55;11.50;;;-0.10;92.60;;;;;;5126142;27;27352;-47
2021/01/15 18:12:30;;;;;;;20.70;12.13;;;-0.10;92.60;;;;;;5125596;27;27442;-49
2021/01/15 18:15:15;;;;;;;19.30;11.73;;;-0.10;92.70;;;;;;5126632;27;27480;-48
2021/01/15 18:18:00;;;;;;;22.58;12.23;;;-0.10;92.70;;;;;;5126340;27;27475;-47
2021/01/15 18:20:45;;;;;;;20.20;11.68;;;-0.10;92.80;;;;;;5126576;27;27492;-47
2021/01/15 18:23:30;;;;;;;22.92;12.27;;;0.00;92.90;;;;;;5126141;27;27481;-49
2021/01/15 18:26:14;;;;;;;21.40;12.75;;;0.00;92.90;;;;;;5126534;27;27615;-47
2021/01/15 18:28:59;;;;;;;25.70;14.32;;;0.00;93.00;;;;;;5110726;27;27400;-48
2021/01/15 18:31:43;;;;;;;28.88;14.77;;;0.00;93.00;;;;;;5126168;27;27405;-50
2021/01/15 18:34:28;;;;;;;23.58;13.88;;;0.00;93.00;;;;;;5126092;27;27323;-48
2021/01/15 18:37:13;;;;;;;20.15;13.68;;;0.00;93.00;;;;;;5125605;27;27945;-47
2021/01/15 18:39:58;;;;;;;25.67;15.30;;;0.00;92.90;;;;;;5126182;27;27413;-47
2021/01/15 18:42:44;;;;;;;24.92;12.90;;;0.00;93.10;;;;;;5122976;27;27352;-48
2021/01/15 18:45:28;;;;;;;24.83;14.23;;;0.00;93.10;;;;;;5126015;27;27437;-51
2021/01/15 18:48:13;;;;;;;29.00;15.35;;;0.00;93.10;;;;;;5125317;27;27347;-47
2021/01/15 18:50:57;;;;;;;29.77;16.42;;;0.00;93.20;;;;;;5126138;27;27354;-51
2021/01/15 18:53:43;;;;;;;28.45;15.82;;;0.00;93.20;;;;;;5125892;27;27357;-47
2021/01/15 18:56:27;;;;;;;28.08;15.43;;;0.00;93.30;;;;;;5125286;27;27448;-45
2021/01/15 18:59:12;;;;;;;27.15;15.95;;;0.00;93.30;;;;;;5125931;27;27381;-48
2021/01/15 19:01:59;;;;;;;29.13;17.50;;;0.00;93.20;;;;;;5125047;27;27498;-48
2021/01/15 19:04:44;;;;;;;30.98;15.48;;;0.00;93.30;;;;;;5124977;27;27378;-51
2021/01/15 19:07:30;;;;;;;33.60;16.55;;;0.00;93.40;;;;;;5121231;27;27391;-47
2021/01/15 19:10:15;;;;;;;32.75;17.08;;;0.00;93.50;;;;;;5124513;27;27484;-48
2021/01/15 19:13:00;;;;;;;34.80;16.33;;;0.00;93.50;;;;;;5125522;27;27422;-48
2021/01/15 19:15:45;;;;;;;27.55;16.40;;;0.10;93.50;;;;;;5125577;27;27485;-47
2021/01/15 19:18:29;;;;;;;27.63;16.45;;;0.00;93.50;;;;;;5125449;27;27401;-49
2021/01/15 19:21:16;;;;;;;30.40;17.52;;;0.00;93.50;;;;;;5125363;27;27332;-47
2021/01/15 19:24:02;;;;;;;31.35;17.92;;;0.00;93.60;;;;;;5125186;27;27475;-48
2021/01/15 19:26:46;;;;;;;33.42;18.38;;;0.10;93.60;;;;;;5125132;27;27419;-48
2021/01/15 19:29:31;;;;;;;31.85;18.85;;;0.10;93.60;;;;;;5125472;27;27444;-47
2021/01/15 19:32:16;;;;;;;33.67;17.98;;;0.10;93.60;;;;;;5124853;27;27468;-50
2021/01/15 19:35:01;;;;;;;40.22;19.67;;;0.10;93.60;;;;;;5121695;27;27399;-49
2021/01/15 19:37:46;;;;;;;36.85;18.60;;;0.10;93.70;;;;;;5125112;27;27477;-52
2021/01/15 19:40:30;;;;;;;30.08;18.65;;;0.10;93.70;;;;;;5125136;27;27461;-48
2021/01/15 19:43:15;;;;;;;35.58;18.35;;;0.10;93.80;;;;;;5125296;27;27871;-49
2021/01/15 19:46:01;;;;;;;36.10;20.63;;;0.10;93.70;;;;;;5124860;27;27447;-51
2021/01/15 19:48:47;;;;;;;34.15;18.60;;;0.10;93.70;;;;;;5123969;27;27503;-49
2021/01/15 19:51:32;;;;;;;32.88;19.38;;;0.10;93.80;;;;;;5125282;27;27402;-47
2021/01/15 19:54:17;;;;;;;36.35;19.55;;;0.10;93.90;;;;;;5124987;27;27456;-47
2021/01/15 19:57:02;;;;;;;34.75;18.98;;;0.10;93.90;;;;;;5125199;27;27509;-46
2021/01/15 19:59:46;;;;;;;37.20;20.55;;;0.10;93.90;;;;;;5124688;27;27399;-47
2021/01/15 20:02:31;;;;;;;36.70;20.73;;;0.10;94.00;;;;;;5121659;27;27472;-51
2021/01/15 20:05:16;;;;;;;39.33;21.20;;;0.10;94.00;;;;;;5124597;27;27930;-48
2021/01/15 20:08:01;;;;;;;39.17;20.83;;;0.10;94.00;;;;;;5124358;27;27472;-50
2021/01/15 20:10:47;;;;;;;38.58;20.27;;;0.10;94.00;;;;;;5127916;27;27481;-48
2021/01/15 20:13:32;;;;;;;39.10;21.70;;;0.10;93.90;;;;;;5124859;27;27459;-47
2021/01/15 20:16:16;;;;;;;34.67;20.17;;;0.20;94.00;;;;;;5128535;27;27880;-47
2021/01/15 20:19:01;;;;;;;33.03;18.88;;;0.20;94.00;;;;;;5127446;27;27438;-48
2021/01/15 20:21:45;;;;;;;34.80;19.63;;;0.20;93.90;;;;;;5128199;27;26878;-48
2021/01/15 20:24:29;;;;;;;35.88;19.70;;;0.20;93.90;;;;;;5128463;27;27430;-49
2021/01/15 20:27:14;;;;;;;41.08;20.98;;;0.20;93.90;;;;;;5127449;27;27331;-47
2021/01/15 20:29:58;;;;;;;41.58;22.02;;;0.20;93.90;;;;;;5124368;27;27466;-47
2021/01/15 20:32:43;;;;;;;50.25;23.75;;;0.20;94.00;;;;;;5128461;27;27372;-49
2021/01/15 20:35:28;;;;;;;56.80;24.80;;;0.20;94.00;;;;;;5128414;27;27370;-47
2021/01/15 20:38:12;;;;;;;60.13;28.33;;;0.20;94.00;;;;;;5124821;27;27335;-50
2021/01/15 20:40:57;;;;;;;62.33;27.40;;;0.10;94.00;;;;;;5128154;27;27495;-49
2021/01/15 20:43:42;;;;;;;64.50;28.23;;;0.10;93.90;;;;;;5127937;27;27351;-50
2021/01/15 20:46:27;;;;;;;62.00;29.15;;;0.10;94.00;;;;;;5128186;27;27389;-47
2021/01/15 20:49:12;;;;;;;62.28;30.25;;;0.10;93.90;;;;;;5127526;27;27858;-47
2021/01/15 20:51:56;;;;;;;57.05;27.40;;;0.20;94.00;;;;;;5127184;27;27364;-45
2021/01/15 20:54:41;;;;;;;58.05;28.13;;;0.20;94.00;;;;;;5127437;27;27352;-48
2021/01/15 20:57:26;;;;;;;57.00;26.70;;;0.10;94.00;;;;;;5128006;27;27328;-47
2021/01/15 21:00:11;;;;;;;59.58;28.38;;;0.10;94.00;;;;;;5127932;27;27386;-47
2021/01/15 21:03:06;;;;;;;59.63;27.77;;;0.10;94.00;;;;;;5127824;27;27401;-48
2021/01/15 21:05:51;;;;;;;54.63;26.73;;;0.10;94.10;;;;;;5127884;27;26955;-47
2021/01/15 21:08:35;;;;;;;52.28;26.33;;;0.10;94.10;;;;;;5127311;27;27331;-47
2021/01/15 21:11:20;;;;;;;47.40;25.00;;;0.10;94.10;;;;;;5124200;27;27339;-47
2021/01/15 21:14:08;;;;;;;53.10;25.92;;;0.10;94.10;;;;;;5127758;27;27406;-47
2021/01/15 21:16:53;;;;;;;52.17;24.75;;;0.10;94.10;;;;;;5127104;27;27385;-47
2021/01/15 21:19:37;;;;;;;50.70;24.75;;;0.10;94.10;;;;;;5126890;27;27337;-47
2021/01/15 21:22:22;;;;;;;50.42;24.25;;;0.10;94.10;;;;;;5126829;27;27855;-50
2021/01/15 21:25:07;;;;;;;48.38;23.20;;;0.10;94.10;;;;;;5126711;27;27378;-47
2021/01/15 21:27:53;;;;;;;47.20;22.50;;;0.10;94.20;;;;;;5127326;27;27355;-47
2021/01/15 21:30:38;;;;;;;43.63;22.58;;;0.10;94.20;;;;;;5127102;27;27336;-49
2021/01/15 21:33:22;;;;;;;45.42;23.17;;;0.10;94.20;;;;;;5126982;27;27342;-48
2021/01/15 21:36:07;;;;;;;43.63;22.67;;;0.10;94.20;;;;;;5126307;27;27424;-48
2021/01/15 21:38:52;;;;;;;41.03;21.95;;;0.10;94.20;;;;;;5123279;27;27374;-48
2021/01/15 21:41:36;;;;;;;40.35;21.83;;;0.10;94.30;;;;;;5127140;27;27405;-48
2021/01/15 21:44:21;;;;;;;37.50;21.05;;;0.10;94.30;;;;;;5127024;27;27393;-48
2021/01/15 21:47:05;;;;;;;40.72;21.20;;;0.20;94.30;;;;;;5126326;27;27324;-48
2021/01/15 21:49:50;;;;;;;40.92;21.52;;;0.20;94.30;;;;;;5125702;27;27397;-49
2021/01/15 21:52:35;;;;;;;41.50;21.75;;;0.20;94.40;;;;;;5127218;27;27392;-45
2021/01/15 21:55:20;;;;;;;40.88;22.35;;;0.20;94.40;;;;;;5126868;27;27879;-49
2021/01/15 21:58:08;;;;;;;42.17;21.80;;;0.20;94.30;;;;;;5126065;27;27603;-48
2021/01/15 22:00:53;;;;;;;39.40;20.83;;;0.20;94.40;;;;;;5126349;27;27370;-51
2021/01/15 22:03:37;;;;;;;37.22;20.65;;;0.20;94.40;;;;;;5126703;27;27392;-48
2021/01/15 22:06:22;;;;;;;41.42;20.90;;;0.20;94.40;;;;;;5127160;27;27323;-50
2021/01/15 22:09:09;;;;;;;38.63;20.70;;;0.20;94.40;;;;;;5126286;27;27421;-49
2021/01/15 22:11:54;;;;;;;36.13;20.17;;;0.20;94.40;;;;;;5126931;27;27370;-48
2021/01/15 22:14:38;;;;;;;31.90;18.58;;;0.20;94.30;;;;;;5126816;27;27325;-50
2021/01/15 22:17:22;;;;;;;37.97;20.92;;;0.20;94.40;;;;;;5125307;27;27361;-50
2021/01/15 22:20:08;;;;;;;34.25;20.42;;;0.20;94.40;;;;;;5126704;27;27574;-48
2021/01/15 22:22:52;;;;;;;32.20;19.45;;;0.20;94.40;;;;;;5122364;27;27374;-48
2021/01/15 22:25:40;;;;;;;35.45;18.98;;;0.20;94.40;;;;;;5126420;27;27334;-49
2021/01/15 22:28:25;;;;;;;32.13;19.73;;;0.20;94.40;;;;;;5126378;27;27457;-44
2021/01/15 22:31:10;;;;;;;36.83;20.02;;;0.20;94.40;;;;;;5125814;27;27589;-49
2021/01/15 22:33:55;;;;;;;36.05;20.05;;;0.20;94.40;;;;;;5126399;27;27427;-48
2021/01/15 22:36:42;;;;;;;30.52;19.10;;;0.20;94.40;;;;;;5126455;27;27453;-46
2021/01/15 22:39:27;;;;;;;35.42;19.52;;;0.20;94.40;;;;;;5126254;27;27425;-47
2021/01/15 22:42:11;;;;;;;33.85;19.60;;;0.20;94.40;;;;;;5126008;27;27455;-48
2021/01/15 22:44:56;;;;;;;32.78;19.42;;;0.20;94.40;;;;;;5125695;27;27612;-47
2021/01/15 22:47:40;;;;;;;35.10;18.63;;;0.20;94.40;;;;;;5125066;27;27425;-48
2021/01/15 22:50:25;;;;;;;32.35;17.02;;;0.20;94.50;;;;;;5126140;27;27435;-48
2021/01/15 22:53:10;;;;;;;36.30;18.25;;;0.20;94.50;;;;;;5125689;27;27535;-48
2021/01/15 22:55:55;;;;;;;33.72;17.90;;;0.20;94.50;;;;;;5122701;27;27315;-49
2021/01/15 22:58:39;;;;;;;30.25;17.15;;;0.20;94.40;;;;;;5125948;27;27316;-49
2021/01/15 23:01:23;;;;;;;28.55;17.10;;;0.20;94.50;;;;;;5125597;27;27351;-47
2021/01/15 23:04:08;;;;;;;30.17;17.30;;;0.20;94.50;;;;;;5125832;27;27399;-51
2021/01/15 23:06:53;;;;;;;31.08;17.98;;;0.20;94.50;;;;;;5125856;27;27399;-51
